Time;durP1;ratioP1;P1;durP2;ratioP2;P2;SDS_P1;SDS_P2;PMS_P1;PMS_P2;Temp;Humidity;BMP_temperature;BMP_pressure;BME280_temperature;BME280_humidity;BME280_pressure;Samples;Min_cycle;Max_cycle;Signal;HPM_P1;HPM_P2
2022/05/01 00:02:14;;;;;;;;;;;;;;;;;;5052953;28;19909;-58
2022/05/01 00:04:40;;;;;;;;;;;;;;;;;;5053112;28;20007;-47
2022/05/01 00:07:10;;;;;;;;;;;;;;;;;;5052291;28;19929;-58
2022/05/01 00:09:38;;;;;;;;;;;;;;;;;;5052723;28;20295;-56
2022/05/01 00:12:04;;;;;;;;;;;;;;;;;;5052552;28;19909;-47
2022/05/01 00:14:31;;;;;;;;;;;;;;;;;;5054030;28;20418;-48
2022/05/01 00:16:57;;;;;;;;;;;;;;;;;;5053888;28;19912;-48
2022/05/01 00:19:24;;;;;;;;;;;;;;;;;;5052952;28;20419;-51
2022/05/01 00:21:50;;;;;;;;;;;;;;;;;;5053878;28;19956;-49
2022/05/01 00:24:17;;;;;;;;;;;;;;;;;;5053641;28;19959;-52
2022/05/01 00:26:43;;;;;;;;;;;;;;;;;;5053917;28;19909;-53
2022/05/01 00:29:10;;;;;;;;;;;;;;;;;;5053768;28;19920;-52
2022/05/01 00:31:37;;;;;;;;;;;;;;;;;;5053729;28;19958;-52
2022/05/01 00:36:51;;;;;;;;;;;;;;;;;;5053643;28;19916;-55
2022/05/01 00:39:17;;;;;;;;;;;;;;;;;;5052893;28;19909;-51
2022/05/01 00:41:46;;;;;;;;;;;;;;;;;;5052445;28;20344;-55
2022/05/01 00:44:12;;;;;;;;;;;;;;;;;;5053824;28;19915;-56
2022/05/01 00:46:39;;;;;;;;;;;;;;;;;;5053324;28;19948;-52
2022/05/01 00:49:05;;;;;;;;;;;;;;;;;;5053564;28;19917;-47
2022/05/01 00:51:32;;;;;;;;;;;;;;;;;;5052956;28;19916;-51
2022/05/01 00:53:58;;;;;;;;;;;;;;;;;;5052354;28;19974;-49
2022/05/01 00:56:25;;;;;;;;;;;;;;;;;;5052242;28;19952;-53
2022/05/01 00:58:51;;;;;;;;;;;;;;;;;;5052959;28;19909;-43
2022/05/01 01:01:18;;;;;;;;;;;;;;;;;;5052641;28;19963;-51
2022/05/01 01:03:44;;;;;;;;;;;;;;;;;;5052051;28;19909;-57
2022/05/01 01:06:11;;;;;;;;;;;;;;;;;;5052160;28;19947;-54
2022/05/01 01:08:37;;;;;;;;;;;;;;;;;;5052172;28;19909;-53
2022/05/01 01:11:04;;;;;;;;;;;;;;;;;;5052343;28;20368;-45
2022/05/01 01:13:30;;;;;;;;;;;;;;;;;;5052700;28;20322;-46
2022/05/01 01:15:56;;;;;;;;;;;;;;;;;;5052372;28;19967;-49
2022/05/01 01:18:23;;;;;;;;;;;;;;;;;;5052291;28;19947;-48
2022/05/01 01:20:49;;;;;;;;;;;;;;;;;;5052429;28;19970;-50
2022/05/01 01:23:16;;;;;;;;;;;;;;;;;;5051619;28;19935;-53
2022/05/01 01:25:43;;;;;;;;;;;;;;;;;;5068637;28;20050;-49
2022/05/01 01:28:09;;;;;;;;;;;;;;;;;;5071942;28;20002;-57
2022/05/01 01:33:20;;;;;;;;;;;;;;;;;;5068668;28;19916;-51
2022/05/01 01:35:47;;;;;;;;;;;;;;;;;;5051795;28;19932;-50
2022/05/01 01:38:13;;;;;;;;;;;;;;;;;;5051308;28;20352;-43
2022/05/01 01:40:40;;;;;;;;;;;;;;;;;;5051848;28;19931;-50
2022/05/01 01:43:06;;;;;;;;;;;;;;;;;;5052018;28;20011;-53
2022/05/01 01:45:33;;;;;;;;;;;;;;;;;;5051695;28;19963;-51
2022/05/01 01:47:59;;;;;;;;;;;;;;;;;;5062153;28;19944;-49
2022/05/01 01:50:26;;;;;;;;;;;;;;;;;;5071540;28;19927;-53
2022/05/01 01:52:53;;;;;;;;;;;;;;;;;;5074624;28;19909;-53
2022/05/01 01:55:19;;;;;;;;;;;;;;;;;;5075694;28;19930;-45
2022/05/01 01:57:49;;;;;;;;;;;;;;;;;;5075233;28;19916;-45
2022/05/01 02:00:15;;;;;;;;;;;;;;;;;;5075248;28;19908;-50
2022/05/01 02:02:42;;;;;;;;;;;;;;;;;;5075045;28;19908;-51
2022/05/01 02:05:08;;;;;;;;;;;;;;;;;;5074606;28;19908;-45
2022/05/01 02:07:34;;;;;;;;;;;;;;;;;;5075547;28;19920;-55
2022/05/01 02:10:01;;;;;;;;;;;;;;;;;;5075106;28;19916;-47
2022/05/01 02:12:27;;;;;;;;;;;;;;;;;;5074403;28;19912;-48
2022/05/01 02:14:54;;;;;;;;;;;;;;;;;;5075064;28;20402;-52
2022/05/01 02:17:20;;;;;;;;;;;;;;;;;;5073797;28;20345;-54
2022/05/01 02:19:47;;;;;;;;;;;;;;;;;;5075525;28;19913;-51
2022/05/01 02:22:13;;;;;;;;;;;;;;;;;;5074615;28;19985;-49
2022/05/01 02:24:40;;;;;;;;;;;;;;;;;;5074640;28;19995;-52
2022/05/01 02:27:07;;;;;;;;;;;;;;;;;;5074240;28;19913;-49
2022/05/01 02:29:33;;;;;;;;;;;;;;;;;;5074248;28;19986;-57
2022/05/01 02:32:00;;;;;;;;;;;;;;;;;;5074926;28;19908;-49
2022/05/01 02:34:26;;;;;;;;;;;;;;;;;;5074942;28;19908;-44
2022/05/01 02:36:53;;;;;;;;;;;;;;;;;;5074776;28;19947;-51
2022/05/01 02:39:19;;;;;;;;;;;;;;;;;;5074316;28;19935;-49
2022/05/01 02:41:46;;;;;;;;;;;;;;;;;;5074743;28;20401;-52
2022/05/01 02:44:12;;;;;;;;;;;;;;;;;;5074440;28;19912;-52
2022/05/01 02:46:39;;;;;;;;;;;;;;;;;;5074508;28;19935;-50
2022/05/01 02:49:05;;;;;;;;;;;;;;;;;;5075034;28;19960;-54
2022/05/01 02:51:32;;;;;;;;;;;;;;;;;;5074665;28;19995;-52
2022/05/01 02:53:58;;;;;;;;;;;;;;;;;;5074066;28;19909;-50
2022/05/01 02:56:26;;;;;;;;;;;;;;;;;;5073834;28;19916;-52
2022/05/01 02:58:52;;;;;;;;;;;;;;;;;;5073074;28;19920;-48
2022/05/01 03:01:19;;;;;;;;;;;;;;;;;;5064017;28;19916;-45
2022/05/01 03:03:45;;;;;;;;;;;;;;;;;;5052406;28;19916;-47
2022/05/01 03:06:12;;;;;;;;;;;;;;;;;;5051949;28;19928;-51
2022/05/01 03:08:38;;;;;;;;;;;;;;;;;;5054129;28;20300;-54
2022/05/01 03:11:05;;;;;;;;;;;;;;;;;;5053924;28;20302;-42
2022/05/01 03:13:31;;;;;;;;;;;;;;;;;;5053832;28;19920;-55
2022/05/01 03:15:58;;;;;;;;;;;;;;;;;;5053764;28;19995;-55
2022/05/01 03:23:54;;;;;;;;;;;;;;;;;;5034231;28;19947;-52
2022/05/01 03:26:20;;;;;;;;;;;;;;;;;;5033272;28;19917;-47
2022/05/01 03:28:47;;;;;;;;;;;;;;;;;;5033383;28;19936;-49
2022/05/01 03:31:13;;;;;;;;;;;;;;;;;;5034070;28;19913;-54
2022/05/01 03:33:41;;;;;;;;;;;;;;;;;;5033508;28;20040;-49
2022/05/01 03:36:08;;;;;;;;;;;;;;;;;;5031981;28;20283;-49
2022/05/01 03:38:35;;;;;;;;;;;;;;;;;;5058718;28;19915;-52
2022/05/01 03:41:01;;;;;;;;;;;;;;;;;;5073944;28;19954;-53
2022/05/01 03:43:28;;;;;;;;;;;;;;;;;;5073308;28;20026;-55
2022/05/01 03:45:55;;;;;;;;;;;;;;;;;;5073412;28;20003;-44
2022/05/01 03:48:22;;;;;;;;;;;;;;;;;;5072792;28;20049;-48
2022/05/01 03:50:48;;;;;;;;;;;;;;;;;;5073218;28;19923;-50
2022/05/01 03:53:15;;;;;;;;;;;;;;;;;;5073089;28;19913;-48
2022/05/01 03:55:42;;;;;;;;;;;;;;;;;;5073284;28;19909;-45
2022/05/01 03:58:08;;;;;;;;;;;;;;;;;;5073069;28;19908;-46
2022/05/01 04:00:35;;;;;;;;;;;;;;;;;;5072776;28;20362;-48
2022/05/01 04:03:01;;;;;;;;;;;;;;;;;;5073409;28;19908;-47
2022/05/01 04:05:28;;;;;;;;;;;;;;;;;;5072288;28;19925;-49
2022/05/01 04:07:55;;;;;;;;;;;;;;;;;;5072028;28;19909;-44
2022/05/01 04:10:21;;;;;;;;;;;;;;;;;;5072601;28;19916;-44
2022/05/01 04:12:48;;;;;;;;;;;;;;;;;;5072861;28;20347;-46
2022/05/01 04:15:17;;;;;;;;;;;;;;;;;;5073105;28;19908;-47
2022/05/01 04:17:44;;;;;;;;;;;;;;;;;;5072739;28;19936;-47
2022/05/01 04:20:11;;;;;;;;;;;;;;;;;;5072787;28;19909;-45
2022/05/01 04:22:38;;;;;;;;;;;;;;;;;;5072683;28;19936;-46
2022/05/01 04:25:05;;;;;;;;;;;;;;;;;;5071980;28;20318;-48
2022/05/01 04:27:31;;;;;;;;;;;;;;;;;;5072524;28;19909;-50
2022/05/01 04:29:58;;;;;;;;;;;;;;;;;;5072645;28;19959;-46
2022/05/01 04:32:24;;;;;;;;;;;;;;;;;;5053548;28;20287;-47
2022/05/01 04:34:51;;;;;;;;;;;;;;;;;;5052833;28;19999;-43
2022/05/01 04:37:17;;;;;;;;;;;;;;;;;;5052096;28;19913;-49
2022/05/01 04:39:43;;;;;;;;;;;;;;;;;;5052968;28;19913;-50
2022/05/01 04:42:10;;;;;;;;;;;;;;;;;;5052459;28;19909;-50
2022/05/01 04:44:36;;;;;;;;;;;;;;;;;;5052599;28;19960;-45
2022/05/01 04:47:03;;;;;;;;;;;;;;;;;;5052167;28;19931;-45
2022/05/01 04:49:30;;;;;;;;;;;;;;;;;;5051881;28;19917;-48
2022/05/01 04:51:57;;;;;;;;;;;;;;;;;;5052391;28;19936;-51
2022/05/01 04:54:24;;;;;;;;;;;;;;;;;;5052306;28;20275;-47
2022/05/01 04:57:06;;;;;;;;;;;;;;;;;;5052659;28;20325;-54
2022/05/01 04:59:32;;;;;;;;;;;;;;;;;;5052252;28;20452;-42
2022/05/01 05:01:59;;;;;;;;;;;;;;;;;;5063096;28;20337;-44
2022/05/01 05:04:27;;;;;;;;;;;;;;;;;;5071192;28;19913;-47
2022/05/01 05:06:54;;;;;;;;;;;;;;;;;;5071049;28;20011;-49
2022/05/01 05:12:05;;;;;;;;;;;;;;;;;;5072573;28;19959;-49
2022/05/01 05:14:32;;;;;;;;;;;;;;;;;;5059601;28;20374;-44
2022/05/01 05:16:59;;;;;;;;;;;;;;;;;;5051962;28;20278;-50
2022/05/01 05:19:26;;;;;;;;;;;;;;;;;;5052127;28;20282;-45
2022/05/01 05:21:52;;;;;;;;;;;;;;;;;;5051728;28;19908;-49
2022/05/01 05:24:19;;;;;;;;;;;;;;;;;;5051660;28;19909;-46
2022/05/01 05:26:45;;;;;;;;;;;;;;;;;;5054962;28;19916;-49
2022/05/01 05:29:15;;;;;;;;;;;;;;;;;;5055152;28;19917;-50
2022/05/01 05:31:41;;;;;;;;;;;;;;;;;;5056091;28;19992;-52
2022/05/01 05:34:08;;;;;;;;;;;;;;;;;;5072160;28;19943;-49
2022/05/01 05:36:34;;;;;;;;;;;;;;;;;;5075778;28;19909;-50
2022/05/01 05:39:01;;;;;;;;;;;;;;;;;;5075986;28;20002;-47
2022/05/01 05:41:27;;;;;;;;;;;;;;;;;;5075984;28;19962;-50
2022/05/01 05:43:53;;;;;;;;;;;;;;;;;;5076004;28;20003;-50
2022/05/01 05:46:20;;;;;;;;;;;;;;;;;;5075375;28;19974;-50
2022/05/01 05:48:46;;;;;;;;;;;;;;;;;;5075054;28;19919;-45
2022/05/01 05:51:13;;;;;;;;;;;;;;;;;;5075756;28;19915;-47
2022/05/01 05:53:39;;;;;;;;;;;;;;;;;;5075370;28;19916;-51
2022/05/01 05:56:06;;;;;;;;;;;;;;;;;;5075726;28;19909;-47
2022/05/01 05:58:32;;;;;;;;;;;;;;;;;;5075550;28;19909;-46
2022/05/01 06:00:59;;;;;;;;;;;;;;;;;;5075172;28;19916;-48
2022/05/01 06:03:25;;;;;;;;;;;;;;;;;;5075577;28;19934;-48
2022/05/01 06:05:52;;;;;;;;;;;;;;;;;;5074961;28;19921;-53
2022/05/01 06:08:18;;;;;;;;;;;;;;;;;;5074770;28;20209;-47
2022/05/01 06:10:44;;;;;;;;;;;;;;;;;;5074690;28;19963;-53
2022/05/01 06:13:11;;;;;;;;;;;;;;;;;;5075358;28;20323;-50
2022/05/01 06:15:38;;;;;;;;;;;;;;;;;;5075446;28;20066;-46
2022/05/01 06:18:04;;;;;;;;;;;;;;;;;;5075363;28;19982;-48
2022/05/01 06:20:31;;;;;;;;;;;;;;;;;;5074998;28;19940;-50
2022/05/01 06:22:57;;;;;;;;;;;;;;;;;;5063877;28;19909;-52
2022/05/01 06:25:24;;;;;;;;;;;;;;;;;;5055036;28;20339;-49
2022/05/01 06:27:51;;;;;;;;;;;;;;;;;;5054877;28;20031;-47
2022/05/01 06:30:17;;;;;;;;;;;;;;;;;;5073951;28;19938;-46
2022/05/01 06:32:43;;;;;;;;;;;;;;;;;;5075175;28;19991;-52
2022/05/01 06:35:10;;;;;;;;;;;;;;;;;;5074071;28;19915;-52
2022/05/01 06:37:37;;;;;;;;;;;;;;;;;;5074304;28;19946;-44
2022/05/01 06:40:03;;;;;;;;;;;;;;;;;;5074495;28;19983;-49
2022/05/01 06:42:30;;;;;;;;;;;;;;;;;;5074158;28;19909;-54
2022/05/01 06:44:56;;;;;;;;;;;;;;;;;;5074762;28;19912;-44
2022/05/01 06:47:23;;;;;;;;;;;;;;;;;;5074784;28;19908;-52
2022/05/01 06:49:49;;;;;;;;;;;;;;;;;;5074473;28;20030;-50
2022/05/01 06:52:16;;;;;;;;;;;;;;;;;;5056936;28;19913;-46
2022/05/01 06:54:42;;;;;;;;;;;;;;;;;;5054734;28;20359;-48
2022/05/01 06:57:09;;;;;;;;;;;;;;;;;;5054667;28;20243;-56
2022/05/01 06:59:35;;;;;;;;;;;;;;;;;;5054535;28;19909;-44
2022/05/01 07:02:02;;;;;;;;;;;;;;;;;;5054492;28;19934;-51
2022/05/01 07:04:28;;;;;;;;;;;;;;;;;;5054164;28;19920;-49
2022/05/01 07:06:54;;;;;;;;;;;;;;;;;;5054717;28;19921;-54
2022/05/01 07:09:21;;;;;;;;;;;;;;;;;;5054568;28;20375;-45
2022/05/01 07:11:47;;;;;;;;;;;;;;;;;;5054922;28;19909;-45
2022/05/01 07:14:14;;;;;;;;;;;;;;;;;;5054205;28;19909;-49
2022/05/01 07:16:40;;;;;;;;;;;;;;;;;;5054327;28;20003;-51
2022/05/01 07:19:07;;;;;;;;;;;;;;;;;;5072833;28;19909;-50
2022/05/01 07:21:33;;;;;;;;;;;;;;;;;;5073972;28;19940;-48
2022/05/01 07:24:00;;;;;;;;;;;;;;;;;;5072621;28;19954;-53
2022/05/01 07:26:33;;;;;;;;;;;;;;;;;;5074389;28;20349;-50
2022/05/01 07:28:59;;;;;;;;;;;;;;;;;;5073938;28;20310;-47
2022/05/01 07:31:26;;;;;;;;;;;;;;;;;;5074036;28;19952;-48
2022/05/01 07:33:52;;;;;;;;;;;;;;;;;;5074206;28;19913;-45
2022/05/01 07:36:23;;;;;;;;;;;;;;;;;;5073473;28;19908;-51
2022/05/01 07:38:50;;;;;;;;;;;;;;;;;;5073754;28;20014;-49
2022/05/01 07:41:19;;;;;;;;;;;;;;;;;;5073817;28;19919;-50
2022/05/01 07:43:46;;;;;;;;;;;;;;;;;;5073652;28;19909;-48
2022/05/01 07:46:12;;;;;;;;;;;;;;;;;;5073678;28;19978;-40
2022/05/01 07:48:39;;;;;;;;;;;;;;;;;;5073123;28;20326;-44
2022/05/01 07:51:05;;;;;;;;;;;;;;;;;;5073323;28;19923;-45
2022/05/01 07:53:32;;;;;;;;;;;;;;;;;;5073493;28;20283;-47
2022/05/01 07:55:58;;;;;;;;;;;;;;;;;;5073863;28;19914;-51
2022/05/01 07:58:26;;;;;;;;;;;;;;;;;;5073676;28;19908;-53
2022/05/01 08:00:54;;;;;;;;;;;;;;;;;;5073214;28;19962;-52
2022/05/01 08:06:22;;;;;;;;;;;;;;;;;;5031030;28;19948;-49
2022/05/01 08:08:49;;;;;;;;;;;;;;;;;;5064143;28;19912;-57
2022/05/01 08:11:15;;;;;;;;;;;;;;;;;;5073294;28;19943;-48
2022/05/01 08:13:42;;;;;;;;;;;;;;;;;;5073566;28;19915;-54
2022/05/01 08:16:08;;;;;;;;;;;;;;;;;;5073084;28;19909;-52
2022/05/01 08:21:21;;;;;;;;;;;;;;;;;;5073807;28;20301;-45
2022/05/01 08:23:47;;;;;;;;;;;;;;;;;;5073088;28;19934;-52
2022/05/01 08:26:14;;;;;;;;;;;;;;;;;;5062212;28;19916;-55
2022/05/01 08:28:41;;;;;;;;;;;;;;;;;;5053011;28;19963;-48
2022/05/01 08:31:07;;;;;;;;;;;;;;;;;;5052937;28;20371;-45
2022/05/01 08:33:34;;;;;;;;;;;;;;;;;;5052789;28;19908;-44
2022/05/01 08:36:02;;;;;;;;;;;;;;;;;;5052509;28;20275;-41
2022/05/01 08:38:28;;;;;;;;;;;;;;;;;;5052557;28;19996;-52
2022/05/01 08:40:55;;;;;;;;;;;;;;;;;;5052737;28;20008;-54
2022/05/01 08:43:21;;;;;;;;;;;;;;;;;;5072877;28;19909;-55
2022/05/01 08:45:48;;;;;;;;;;;;;;;;;;5073045;28;19962;-52
2022/05/01 08:48:14;;;;;;;;;;;;;;;;;;5072835;28;19915;-53
2022/05/01 08:50:41;;;;;;;;;;;;;;;;;;5072055;28;19916;-53
2022/05/01 08:53:07;;;;;;;;;;;;;;;;;;5072344;28;19917;-55
2022/05/01 08:55:34;;;;;;;;;;;;;;;;;;5072570;28;19905;-54
2022/05/01 08:58:00;;;;;;;;;;;;;;;;;;5072325;28;19908;-50
2022/05/01 09:00:27;;;;;;;;;;;;;;;;;;5071363;28;19942;-55
2022/05/01 09:02:53;;;;;;;;;;;;;;;;;;5076887;28;19962;-50
2022/05/01 09:05:20;;;;;;;;;;;;;;;;;;5076416;28;19931;-49
2022/05/01 09:07:46;;;;;;;;;;;;;;;;;;5076693;28;19920;-57
2022/05/01 09:10:13;;;;;;;;;;;;;;;;;;5076181;28;19917;-49
2022/05/01 09:12:53;;;;;;;;;;;;;;;;;;5075874;28;19928;-54
2022/05/01 09:15:19;;;;;;;;;;;;;;;;;;5076310;28;19909;-52
2022/05/01 09:17:45;;;;;;;;;;;;;;;;;;5076617;28;19909;-52
2022/05/01 09:20:12;;;;;;;;;;;;;;;;;;5076466;28;20011;-53
2022/05/01 09:22:38;;;;;;;;;;;;;;;;;;5076360;28;19952;-55
2022/05/01 09:25:05;;;;;;;;;;;;;;;;;;5076083;28;19924;-50
2022/05/01 09:27:32;;;;;;;;;;;;;;;;;;5076405;28;19995;-50
2022/05/01 09:29:59;;;;;;;;;;;;;;;;;;5076579;28;19916;-52
2022/05/01 09:32:25;;;;;;;;;;;;;;;;;;5075963;28;19924;-52
2022/05/01 09:34:52;;;;;;;;;;;;;;;;;;5076461;28;19909;-51
2022/05/01 09:37:18;;;;;;;;;;;;;;;;;;5076359;28;19909;-55
2022/05/01 09:39:45;;;;;;;;;;;;;;;;;;5076226;28;19916;-47
2022/05/01 09:42:12;;;;;;;;;;;;;;;;;;5076076;28;20007;-57
2022/05/01 09:44:39;;;;;;;;;;;;;;;;;;5076563;28;19912;-58
2022/05/01 09:47:07;;;;;;;;;;;;;;;;;;5076136;28;19961;-54
2022/05/01 09:49:33;;;;;;;;;;;;;;;;;;5075873;28;19916;-56
2022/05/01 09:52:00;;;;;;;;;;;;;;;;;;5075789;28;20046;-54
2022/05/01 09:54:26;;;;;;;;;;;;;;;;;;5075829;28;20347;-55
2022/05/01 09:56:53;;;;;;;;;;;;;;;;;;5076222;28;19908;-52
2022/05/01 09:59:20;;;;;;;;;;;;;;;;;;5075908;28;20047;-47
2022/05/01 10:01:46;;;;;;;;;;;;;;;;;;5076130;28;19913;-51
2022/05/01 10:04:13;;;;;;;;;;;;;;;;;;5075614;28;19916;-47
2022/05/01 10:06:39;;;;;;;;;;;;;;;;;;5074959;28;19963;-57
2022/05/01 10:09:06;;;;;;;;;;;;;;;;;;5075629;28;19991;-47
2022/05/01 10:11:32;;;;;;;;;;;;;;;;;;5075552;28;20373;-49
2022/05/01 10:13:59;;;;;;;;;;;;;;;;;;5075618;28;19912;-46
2022/05/01 10:16:25;;;;;;;;;;;;;;;;;;5075472;28;20071;-49
2022/05/01 10:18:52;;;;;;;;;;;;;;;;;;5075486;28;19913;-51
2022/05/01 10:21:18;;;;;;;;;;;;;;;;;;5075303;28;20256;-52
2022/05/01 10:23:45;;;;;;;;;;;;;;;;;;5075813;28;19959;-45
2022/05/01 10:26:11;;;;;;;;;;;;;;;;;;5075379;28;20223;-47
2022/05/01 10:28:38;;;;;;;;;;;;;;;;;;5074832;28;19972;-49
2022/05/01 10:33:49;;;;;;;;;;;;;;;;;;5075254;28;19954;-53
2022/05/01 10:36:15;;;;;;;;;;;;;;;;;;5074896;28;19912;-45
2022/05/01 10:38:42;;;;;;;;;;;;;;;;;;5075303;28;20324;-44
2022/05/01 10:41:10;;;;;;;;;;;;;;;;;;5074710;28;19952;-50
2022/05/01 10:43:37;;;;;;;;;;;;;;;;;;5075234;28;19919;-44
2022/05/01 10:46:04;;;;;;;;;;;;;;;;;;5075060;28;20374;-45
2022/05/01 10:48:30;;;;;;;;;;;;;;;;;;5073998;28;20263;-44
2022/05/01 10:50:57;;;;;;;;;;;;;;;;;;5074927;28;20058;-48
2022/05/01 10:53:23;;;;;;;;;;;;;;;;;;5074452;28;19908;-47
2022/05/01 10:55:53;;;;;;;;;;;;;;;;;;5075117;28;19916;-45
2022/05/01 10:58:19;;;;;;;;;;;;;;;;;;5074516;28;19908;-49
2022/05/01 11:00:46;;;;;;;;;;;;;;;;;;5074847;28;19909;-53
2022/05/01 11:03:13;;;;;;;;;;;;;;;;;;5074722;28;19908;-46
2022/05/01 11:05:39;;;;;;;;;;;;;;;;;;5074419;28;20441;-44
2022/05/01 11:08:06;;;;;;;;;;;;;;;;;;5074577;28;19916;-48
2022/05/01 11:10:32;;;;;;;;;;;;;;;;;;5074362;28;19917;-49
2022/05/01 11:12:58;;;;;;;;;;;;;;;;;;5073180;28;19908;-53
2022/05/01 11:15:25;;;;;;;;;;;;;;;;;;5074518;28;19963;-45
2022/05/01 11:17:51;;;;;;;;;;;;;;;;;;5074811;28;19954;-51
2022/05/01 11:20:18;;;;;;;;;;;;;;;;;;5074471;28;19908;-52
2022/05/01 11:22:45;;;;;;;;;;;;;;;;;;5073479;28;19927;-51
2022/05/01 11:25:12;;;;;;;;;;;;;;;;;;5073895;28;19916;-45
2022/05/01 11:27:38;;;;;;;;;;;;;;;;;;5072412;28;20298;-52
2022/05/01 11:30:04;;;;;;;;;;;;;;;;;;5073492;28;20026;-57
2022/05/01 11:32:31;;;;;;;;;;;;;;;;;;5074108;28;19914;-50
2022/05/01 11:34:57;;;;;;;;;;;;;;;;;;5074071;28;19908;-56
2022/05/01 11:37:24;;;;;;;;;;;;;;;;;;5073597;28;19909;-50
2022/05/01 11:39:50;;;;;;;;;;;;;;;;;;5074003;28;19908;-43
2022/05/01 11:42:17;;;;;;;;;;;;;;;;;;5074153;28;19908;-45
2022/05/01 11:44:43;;;;;;;;;;;;;;;;;;5074102;28;20007;-55
2022/05/01 11:47:10;;;;;;;;;;;;;;;;;;5074233;28;19947;-58
2022/05/01 11:49:37;;;;;;;;;;;;;;;;;;5073697;28;20383;-50
2022/05/01 11:52:04;;;;;;;;;;;;;;;;;;5073999;28;19912;-50
2022/05/01 11:54:30;;;;;;;;;;;;;;;;;;5073445;28;19916;-48
2022/05/01 12:02:26;;;;;;;;;;;;;;;;;;5073352;28;20182;-49
2022/05/01 12:04:53;;;;;;;;;;;;;;;;;;5073648;28;20346;-53
2022/05/01 12:07:19;;;;;;;;;;;;;;;;;;5073596;28;20367;-47
2022/05/01 12:09:51;;;;;;;;;;;;;;;;;;5072570;28;20467;-45
2022/05/01 12:12:19;;;;;;;;;;;;;;;;;;5073132;28;20271;-47
2022/05/01 12:14:46;;;;;;;;;;;;;;;;;;5073222;28;19909;-42
2022/05/01 12:17:14;;;;;;;;;;;;;;;;;;5073144;28;19916;-51
2022/05/01 12:19:40;;;;;;;;;;;;;;;;;;5073298;28;19911;-46
2022/05/01 12:22:07;;;;;;;;;;;;;;;;;;5054790;28;19958;-41
2022/05/01 12:24:33;;;;;;;;;;;;;;;;;;5053286;28;19954;-42
2022/05/01 12:27:00;;;;;;;;;;;;;;;;;;5053073;28;19909;-45
2022/05/01 12:29:26;;;;;;;;;;;;;;;;;;5052799;28;19921;-53
2022/05/01 12:31:53;;;;;;;;;;;;;;;;;;5053047;28;19909;-44
2022/05/01 12:34:19;;;;;;;;;;;;;;;;;;5052766;28;20355;-44
2022/05/01 12:36:45;;;;;;;;;;;;;;;;;;5053538;28;19909;-54
2022/05/01 12:39:12;;;;;;;;;;;;;;;;;;5055990;28;19916;-49
2022/05/01 12:44:23;;;;;;;;;;;;;;;;;;5073016;28;19915;-51
2022/05/01 12:46:49;;;;;;;;;;;;;;;;;;5073290;28;19915;-46
2022/05/01 12:49:16;;;;;;;;;;;;;;;;;;5072879;28;19997;-52
2022/05/01 12:51:42;;;;;;;;;;;;;;;;;;5072992;28;19909;-47
2022/05/01 12:54:09;;;;;;;;;;;;;;;;;;5072540;28;19956;-43
2022/05/01 12:56:36;;;;;;;;;;;;;;;;;;5072909;28;20244;-54
2022/05/01 12:59:02;;;;;;;;;;;;;;;;;;5072996;28;19955;-51
2022/05/01 13:01:29;;;;;;;;;;;;;;;;;;5073139;28;19915;-48
2022/05/01 13:03:55;;;;;;;;;;;;;;;;;;5072956;28;19913;-47
2022/05/01 13:06:22;;;;;;;;;;;;;;;;;;5072690;28;19999;-51
2022/05/01 13:08:49;;;;;;;;;;;;;;;;;;5072496;28;19909;-53
2022/05/01 13:11:15;;;;;;;;;;;;;;;;;;5072857;28;20282;-47
2022/05/01 13:13:41;;;;;;;;;;;;;;;;;;5072929;28;19915;-46
2022/05/01 13:16:08;;;;;;;;;;;;;;;;;;5072593;28;19913;-52
2022/05/01 13:18:34;;;;;;;;;;;;;;;;;;5072664;28;19915;-53
2022/05/01 13:21:01;;;;;;;;;;;;;;;;;;5072802;28;20384;-50
2022/05/01 13:23:28;;;;;;;;;;;;;;;;;;5072639;28;19961;-44
2022/05/01 13:25:55;;;;;;;;;;;;;;;;;;5071981;28;20328;-51
2022/05/01 13:28:21;;;;;;;;;;;;;;;;;;5072236;28;19908;-47
2022/05/01 13:30:48;;;;;;;;;;;;;;;;;;5072286;28;19935;-49
2022/05/01 13:33:14;;;;;;;;;;;;;;;;;;5072227;28;20006;-46
2022/05/01 13:35:40;;;;;;;;;;;;;;;;;;5072431;28;19908;-45
2022/05/01 13:38:07;;;;;;;;;;;;;;;;;;5070925;28;19973;-49
2022/05/01 13:46:02;;;;;;;;;;;;;;;;;;5072802;28;19915;-49
2022/05/01 13:48:29;;;;;;;;;;;;;;;;;;5063431;28;19957;-47
2022/05/01 13:50:55;;;;;;;;;;;;;;;;;;5056427;28;20360;-49
2022/05/01 13:53:24;;;;;;;;;;;;;;;;;;5065885;28;20339;-50
2022/05/01 13:55:50;;;;;;;;;;;;;;;;;;5076066;28;19909;-55
2022/05/01 13:58:16;;;;;;;;;;;;;;;;;;5075840;28;19955;-54
2022/05/01 14:00:43;;;;;;;;;;;;;;;;;;5076212;28;19909;-55
2022/05/01 14:03:11;;;;;;;;;;;;;;;;;;5075464;28;20046;-51
2022/05/01 14:05:37;;;;;;;;;;;;;;;;;;5075560;28;20406;-56
2022/05/01 14:08:04;;;;;;;;;;;;;;;;;;5075494;28;20355;-51
2022/05/01 14:10:32;;;;;;;;;;;;;;;;;;5075379;28;19916;-56
2022/05/01 14:12:58;;;;;;;;;;;;;;;;;;5075616;28;19909;-55
2022/05/01 14:15:25;;;;;;;;;;;;;;;;;;5075768;28;19984;-53
2022/05/01 14:17:51;;;;;;;;;;;;;;;;;;5075190;28;19912;-46
2022/05/01 14:20:18;;;;;;;;;;;;;;;;;;5075126;28;20008;-50
2022/05/01 14:22:44;;;;;;;;;;;;;;;;;;5075283;28;19912;-44
2022/05/01 14:25:11;;;;;;;;;;;;;;;;;;5075629;28;19909;-55
2022/05/01 14:27:37;;;;;;;;;;;;;;;;;;5075335;28;19912;-53
2022/05/01 14:30:04;;;;;;;;;;;;;;;;;;5075147;28;19916;-57
2022/05/01 14:32:30;;;;;;;;;;;;;;;;;;5073519;28;19913;-53
2022/05/01 14:34:57;;;;;;;;;;;;;;;;;;5075076;28;19912;-52
2022/05/01 14:37:24;;;;;;;;;;;;;;;;;;5075193;28;19909;-51
2022/05/01 14:39:51;;;;;;;;;;;;;;;;;;5075325;28;20355;-54
2022/05/01 14:42:18;;;;;;;;;;;;;;;;;;5075096;28;20279;-51
2022/05/01 14:44:46;;;;;;;;;;;;;;;;;;5075134;28;19908;-54
2022/05/01 14:47:12;;;;;;;;;;;;;;;;;;5067966;28;19948;-57
2022/05/01 14:49:39;;;;;;;;;;;;;;;;;;5055060;28;19920;-55
2022/05/01 14:52:05;;;;;;;;;;;;;;;;;;5055017;28;20002;-57
2022/05/01 14:54:32;;;;;;;;;;;;;;;;;;5055099;28;20279;-48
2022/05/01 14:56:59;;;;;;;;;;;;;;;;;;5055006;28;19940;-48
2022/05/01 15:07:40;;;;;;;;;;;;;;;;;;5075003;28;19926;-48
2022/05/01 15:10:06;;;;;;;;;;;;;;;;;;5074966;28;19996;-46
2022/05/01 15:12:33;;;;;;;;;;;;;;;;;;5074081;28;19931;-49
2022/05/01 15:15:01;;;;;;;;;;;;;;;;;;5075319;28;19995;-49
2022/05/01 15:17:27;;;;;;;;;;;;;;;;;;5074577;28;19934;-52
2022/05/01 15:19:54;;;;;;;;;;;;;;;;;;5074403;28;19912;-51
2022/05/01 15:22:21;;;;;;;;;;;;;;;;;;5074419;28;19915;-51
2022/05/01 15:24:48;;;;;;;;;;;;;;;;;;5074677;28;19915;-46
2022/05/01 15:27:15;;;;;;;;;;;;;;;;;;5074660;28;20359;-45
2022/05/01 15:29:41;;;;;;;;;;;;;;;;;;5074342;28;20252;-47
2022/05/01 15:32:08;;;;;;;;;;;;;;;;;;5074172;28;19912;-43
2022/05/01 15:34:34;;;;;;;;;;;;;;;;;;5074444;28;20283;-45
2022/05/01 15:37:01;;;;;;;;;;;;;;;;;;5074080;28;19961;-48
2022/05/01 15:39:27;;;;;;;;;;;;;;;;;;5074365;28;20264;-52
2022/05/01 15:41:53;;;;;;;;;;;;;;;;;;5074328;28;20047;-47
2022/05/01 15:44:20;;;;;;;;;;;;;;;;;;5074005;28;19915;-53
2022/05/01 15:46:55;;;;;;;;;;;;;;;;;;5073965;28;19916;-50
2022/05/01 15:54:51;;;;;;;;;;;;;;;;;;5074175;28;20396;-52
2022/05/01 15:57:18;;;;;;;;;;;;;;;;;;5074023;28;20275;-45
2022/05/01 15:59:45;;;;;;;;;;;;;;;;;;5073736;28;19909;-42
2022/05/01 16:02:11;;;;;;;;;;;;;;;;;;5073696;28;19915;-45
2022/05/01 16:04:38;;;;;;;;;;;;;;;;;;5067525;28;19909;-42
2022/05/01 16:07:04;;;;;;;;;;;;;;;;;;5052785;28;20554;-47
2022/05/01 16:09:31;;;;;;;;;;;;;;;;;;5052495;28;19924;-48
2022/05/01 16:12:00;;;;;;;;;;;;;;;;;;5053833;28;20395;-46
2022/05/01 16:14:26;;;;;;;;;;;;;;;;;;5053538;28;19920;-47
2022/05/01 16:16:53;;;;;;;;;;;;;;;;;;5053637;28;19909;-48
2022/05/01 16:19:19;;;;;;;;;;;;;;;;;;5053629;28;19916;-43
2022/05/01 16:21:46;;;;;;;;;;;;;;;;;;5053481;28;19909;-46
2022/05/01 16:24:12;;;;;;;;;;;;;;;;;;5053616;28;19992;-40
2022/05/01 16:26:39;;;;;;;;;;;;;;;;;;5052957;28;20280;-44
2022/05/01 16:29:06;;;;;;;;;;;;;;;;;;5053918;28;20316;-42
2022/05/01 16:31:34;;;;;;;;;;;;;;;;;;5053834;28;20279;-42
2022/05/01 16:34:01;;;;;;;;;;;;;;;;;;5052944;28;20395;-45
2022/05/01 16:36:28;;;;;;;;;;;;;;;;;;5054145;28;19909;-48
2022/05/01 16:38:54;;;;;;;;;;;;;;;;;;5053985;28;19909;-45
2022/05/01 16:41:21;;;;;;;;;;;;;;;;;;5053895;28;19916;-46
2022/05/01 16:43:47;;;;;;;;;;;;;;;;;;5053940;28;19909;-52
2022/05/01 16:46:20;;;;;;;;;;;;;;;;;;5053555;28;20356;-44
2022/05/01 16:48:46;;;;;;;;;;;;;;;;;;5053981;28;19909;-50
2022/05/01 16:51:15;;;;;;;;;;;;;;;;;;5053630;28;19956;-43
2022/05/01 16:53:42;;;;;;;;;;;;;;;;;;5053654;28;20371;-45
2022/05/01 16:56:08;;;;;;;;;;;;;;;;;;5053529;28;19936;-47
2022/05/01 16:58:36;;;;;;;;;;;;;;;;;;5053097;28;19909;-43
2022/05/01 17:01:03;;;;;;;;;;;;;;;;;;5053676;28;19909;-50
2022/05/01 17:03:29;;;;;;;;;;;;;;;;;;5052240;28;19909;-40
2022/05/01 17:05:56;;;;;;;;;;;;;;;;;;5053620;28;19928;-46
2022/05/01 17:08:22;;;;;;;;;;;;;;;;;;5052968;28;19909;-47
2022/05/01 17:10:49;;;;;;;;;;;;;;;;;;5053115;28;19921;-40
2022/05/01 17:13:16;;;;;;;;;;;;;;;;;;5052907;28;19909;-43
2022/05/01 17:15:42;;;;;;;;;;;;;;;;;;5052369;28;19920;-46
2022/05/01 17:18:09;;;;;;;;;;;;;;;;;;5051978;28;19915;-45
2022/05/01 17:20:37;;;;;;;;;;;;;;;;;;5052797;28;19909;-40
2022/05/01 17:23:04;;;;;;;;;;;;;;;;;;5055549;28;19909;-43
2022/05/01 17:25:31;;;;;;;;;;;;;;;;;;5057032;28;19909;-51
2022/05/01 17:27:57;;;;;;;;;;;;;;;;;;5055313;28;19913;-45
2022/05/01 17:30:24;;;;;;;;;;;;;;;;;;5054461;28;19920;-44
2022/05/01 17:32:50;;;;;;;;;;;;;;;;;;5056678;28;19967;-43